Cowlington, Oklahoma
Current Conditions -  °F | °C
As of 8:55 PM on Tuesday 25 Nov 2014 (Local Time) from KGZL Reporting Station
Clear Clear  
Wind Chill:   Ceiling: Unl
Heat Index:   Visibility: 10mi
Dew Point: -8°   Wind: 5mph
Humidity: 39%   Direction: 140°SE
Pressure: 30.15"   Gusts: NA
Location:  35.2597°N, 94.8795°W
Report Text: KGZL 260255Z AUTO 14004KT 10SM CLR 05/M08 A3015 RMK AO2
Loading
Personal Weather Stations






























Interactive Weather Map New forecast layout! Learn more

10-Day Weather Forecast

Advertisements
Track Severe Weather on mobile